Terminal Aerodrome Forecast
Issued by NWS Goodland, KS

Home | Current Version | Previous Version | Text Only | Print | Product List | Glossary On
Versions: 1 2 3 4 5 6 7 8 9 10 11 12 13 14 15 16 17
000
FTUS43 KGLD 141120
TAFGLD
TAF
KGLD 141120Z 1412/1512 14005KT 1/2SM FG VV002
     FM141400 24006KT 1SM BR SCT003
     FM141600 29012KT P6SM SKC
     FM141800 32021G31KT P6SM SKC
     FM142100 34032G43KT P6SM FEW040
     FM150200 34023G33KT P6SM SKC
     FM150700 33011KT P6SM SKC WS020/34030KT
     FM150900 32007KT P6SM SKC
     FM151100 29006KT P6SM SKC=

USA.gov is the U.S. government's official web portal to all federal, state and local government web resources and services.